AL9 weather

CLOSED Cabin Airport
Cabin, British Columbia, Canada

Public forecast

Using degrees Celsius for public forecast. Weather courtesy of forecast.io.

Closest aviation weather report (METAR) to Cabin Airport

Closest report is Fort Nelson Airport, 39.7 nm (73.5 km) SW. Retrieved 2019/10/17 06:00 UTC (35 minutes ago):

CYYE 170600Z 34005KT 5SM -SN OVC005 M00/M00 A2937 RMK SC8 SLP967

Closest aviation forecast (TAF) to Cabin Airport

Closest forecast is Fort Nelson Airport, 39.7 nm (73.5 km) SW. Retrieved 2019/10/17 07:42 UTC (0 seconds ago):

TAF CYYE 170638Z 1707/1719 VRB03KT P6SM OVC025 TEMPO 1707/1708 2SM -SN BR BKN005 FM170800 30006KT 1SM -SN BR OVC005 TEMPO 1708/1715 3SM -SN OVC010 FM171500 26005KT 5SM -SN OVC008 RMK NXT FCST BY 171300Z